AAL2120 KDCA-KBOS
Flight info
| Callsign | AAL2120 |
|---|---|
| Flight time | N/A |
| Altitude | 29000 |
| Route | SOOKI5 SWANN BROSS Q419 JFK ROBUC3 |
| Aircraft | A319/M-SDE3FGHIRWY/LB1 |
Departure
| Time | 2026-05-06 01:27 |
|---|---|
| Airport | Ronald Reagan Washington National Airport (KDCA) |
Arrival
| Time | N/A |
|---|---|
| Airport | Boston Logan International Airport (KBOS) |
| Time | Latitude | Longitude | Altitude | Speed | Heading |
|---|---|---|---|---|---|
| 2026-05-06 00:55 | 38.85665 | -77.04225 | 22 ft | 0 kts | 195° |
| 2026-05-06 01:06 | 38.85669 | -77.04224 | 23 ft | 2 kts | 195° |
| 2026-05-06 01:07 | 38.85684 | -77.04218 | 22 ft | 2 kts | 195° |
| 2026-05-06 01:07 | 38.85698 | -77.04214 | 22 ft | 2 kts | 195° |
| 2026-05-06 01:07 | 38.85708 | -77.04210 | 22 ft | 1 kts | 195° |
| 2026-05-06 01:07 | 38.85717 | -77.04211 | 22 ft | 1 kts | 141° |
| 2026-05-06 01:08 | 38.85722 | -77.04222 | 22 ft | 0 kts | 88° |
| 2026-05-06 01:08 | 38.85721 | -77.04229 | 22 ft | 1 kts | 78° |
| 2026-05-06 01:08 | 38.85720 | -77.04233 | 22 ft | 0 kts | 81° |
| 2026-05-06 01:09 | 38.85720 | -77.04232 | 22 ft | 0 kts | 81° |
| 2026-05-06 01:11 | 38.85720 | -77.04231 | 22 ft | 0 kts | 80° |
| 2026-05-06 01:12 | 38.85738 | -77.04174 | 21 ft | 11 kts | 49° |
| 2026-05-06 01:12 | 38.85826 | -77.04199 | 19 ft | 18 kts | 322° |
| 2026-05-06 01:12 | 38.85882 | -77.04238 | 19 ft | 0 kts | 1° |
| 2026-05-06 01:14 | 38.85906 | -77.04227 | 19 ft | 9 kts | 38° |
| 2026-05-06 01:14 | 38.85926 | -77.04118 | 19 ft | 12 kts | 86° |
| 2026-05-06 01:15 | 38.85931 | -77.04039 | 17 ft | 0 kts | 84° |
| 2026-05-06 01:15 | 38.85933 | -77.04016 | 17 ft | 0 kts | 81° |
| 2026-05-06 01:19 | 38.85934 | -77.04009 | 17 ft | 4 kts | 80° |
| 2026-05-06 01:19 | 38.85970 | -77.03972 | 15 ft | 0 kts | 17° |
| 2026-05-06 01:23 | 38.86000 | -77.03954 | 15 ft | 0 kts | 18° |
| 2026-05-06 01:26 | 38.86037 | -77.03939 | 15 ft | 17 kts | 17° |
| 2026-05-06 01:26 | 38.86049 | -77.03873 | 15 ft | 12 kts | 156° |
| 2026-05-06 01:27 | 38.85622 | -77.03827 | 19 ft | 111 kts | 175° |
| 2026-05-06 01:27 | 38.84639 | -77.03718 | 396 ft | 161 kts | 177° |
| 2026-05-06 01:27 | 38.83481 | -77.03577 | 1295 ft | 184 kts | 175° |
| 2026-05-06 01:27 | 38.82126 | -77.03314 | 2038 ft | 217 kts | 173° |
| 2026-05-06 01:28 | 38.80547 | -77.02981 | 2694 ft | 245 kts | 173° |
| 2026-05-06 01:28 | 38.78820 | -77.02615 | 3360 ft | 253 kts | 173° |
| 2026-05-06 01:28 | 38.77140 | -77.01946 | 4101 ft | 261 kts | 153° |
| 2026-05-06 01:28 | 38.75799 | -77.00339 | 4859 ft | 273 kts | 127° |
| 2026-05-06 01:29 | 38.75156 | -76.98056 | 5607 ft | 285 kts | 99° |
| 2026-05-06 01:29 | 38.75080 | -76.95510 | 6368 ft | 291 kts | 93° |
| 2026-05-06 01:29 | 38.75348 | -76.92887 | 7123 ft | 299 kts | 72° |
| 2026-05-06 01:29 | 38.76452 | -76.90655 | 7870 ft | 306 kts | 43° |
| 2026-05-06 01:30 | 38.78186 | -76.89084 | 8633 ft | 310 kts | 29° |
| 2026-05-06 01:30 | 38.80067 | -76.87711 | 9390 ft | 313 kts | 27° |
| 2026-05-06 01:30 | 38.81952 | -76.86349 | 10137 ft | 317 kts | 28° |
| 2026-05-06 01:30 | 38.83885 | -76.84907 | 10895 ft | 331 kts | 28° |
| 2026-05-06 01:31 | 38.85884 | -76.83257 | 11661 ft | 347 kts | 34° |
| 2026-05-06 01:31 | 38.87803 | -76.81352 | 12407 ft | 362 kts | 39° |
| 2026-05-06 01:31 | 38.89731 | -76.79169 | 13166 ft | 376 kts | 41° |
| 2026-05-06 01:31 | 38.91707 | -76.76853 | 13929 ft | 388 kts | 42° |
| 2026-05-06 01:32 | 38.93700 | -76.74515 | 14674 ft | 399 kts | 42° |
| 2026-05-06 01:32 | 38.95777 | -76.72089 | 15428 ft | 409 kts | 42° |
| 2026-05-06 01:32 | 38.97903 | -76.69611 | 16183 ft | 418 kts | 42° |
| 2026-05-06 01:32 | 39.00066 | -76.67095 | 16935 ft | 425 kts | 42° |
| 2026-05-06 01:33 | 39.02219 | -76.64471 | 17687 ft | 431 kts | 44° |
| 2026-05-06 01:33 | 39.04362 | -76.61758 | 18371 ft | 438 kts | 45° |
| 2026-05-06 01:33 | 39.06558 | -76.58948 | 18781 ft | 442 kts | 45° |
| 2026-05-06 01:33 | 39.08728 | -76.56165 | 18903 ft | 443 kts | 45° |
| 2026-05-06 01:34 | 39.10704 | -76.53120 | 18903 ft | 440 kts | 58° |
| 2026-05-06 01:34 | 39.12038 | -76.49620 | 18911 ft | 435 kts | 74° |
| 2026-05-06 01:34 | 39.12700 | -76.45826 | 19147 ft | 430 kts | 85° |
| 2026-05-06 01:34 | 39.13103 | -76.41998 | 19778 ft | 434 kts | 87° |
| 2026-05-06 01:35 | 39.13475 | -76.38160 | 20402 ft | 439 kts | 87° |
| 2026-05-06 01:35 | 39.13862 | -76.34345 | 21015 ft | 443 kts | 88° |
| 2026-05-06 01:35 | 39.14199 | -76.31190 | 21519 ft | 446 kts | 87° |
| 2026-05-06 01:35 | 39.14632 | -76.27245 | 22144 ft | 450 kts | 87° |
| 2026-05-06 01:36 | 39.15085 | -76.23193 | 22794 ft | 454 kts | 87° |
| 2026-05-06 01:36 | 39.15543 | -76.19180 | 23547 ft | 454 kts | 87° |
| 2026-05-06 01:36 | 39.16003 | -76.15209 | 24292 ft | 453 kts | 88° |
| 2026-05-06 01:36 | 39.16466 | -76.11211 | 25046 ft | 451 kts | 88° |